Time;durP1;ratioP1;P1;durP2;ratioP2;P2;SDS_P1;SDS_P2;PMS_P1;PMS_P2;Temp;Humidity;BMP_temperature;BMP_pressure;BME280_temperature;BME280_humidity;BME280_pressure;Samples;Min_cycle;Max_cycle;Signal;HPM_P1;HPM_P2
2023/04/04 00:01:02;;;;;;;3.65;2.55;;;4.30;99.90;;;;;;5136827;27;20041;-58
2023/04/04 00:03:28;;;;;;;8.30;2.95;;;4.40;99.90;;;;;;5148856;27;20437;-58
2023/04/04 00:05:54;;;;;;;5.75;3.10;;;4.30;99.90;;;;;;5156136;27;20113;-58
2023/04/04 00:08:20;;;;;;;5.47;3.08;;;4.20;99.90;;;;;;5156665;27;20062;-58
2023/04/04 00:10:46;;;;;;;6.72;3.05;;;4.20;99.90;;;;;;5157488;27;20035;-58
2023/04/04 00:13:12;;;;;;;7.15;3.13;;;4.10;99.90;;;;;;5157489;27;20060;-57
2023/04/04 00:15:38;;;;;;;4.90;3.08;;;4.00;99.90;;;;;;5137053;27;20093;-58
2023/04/04 00:18:04;;;;;;;6.50;3.05;;;3.90;99.90;;;;;;5156515;27;20046;-58
2023/04/04 00:20:30;;;;;;;5.18;2.95;;;3.90;99.90;;;;;;5157569;27;20034;-58
2023/04/04 00:22:56;;;;;;;6.90;3.10;;;3.90;99.90;;;;;;5157385;27;20056;-58
2023/04/04 00:25:22;;;;;;;6.97;3.15;;;3.90;99.90;;;;;;5138353;27;20065;-58
2023/04/04 00:27:48;;;;;;;7.75;3.38;;;3.90;99.90;;;;;;5137057;27;21176;-58
2023/04/04 00:30:14;;;;;;;6.43;3.65;;;3.90;99.90;;;;;;5156758;27;20532;-58
2023/04/04 00:32:40;;;;;;;8.27;3.28;;;3.90;99.90;;;;;;5157510;27;20030;-58
2023/04/04 00:35:06;;;;;;;6.70;3.30;;;3.90;99.90;;;;;;5157036;27;20046;-58
2023/04/04 00:37:32;;;;;;;7.38;3.60;;;3.90;99.90;;;;;;5137446;27;20357;-58
2023/04/04 00:39:58;;;;;;;7.18;3.65;;;3.90;99.90;;;;;;5137820;27;20429;-58
2023/04/04 00:42:24;;;;;;;7.90;3.67;;;3.90;99.90;;;;;;5157031;27;20042;-57
2023/04/04 00:44:51;;;;;;;5.15;3.72;;;3.90;99.90;;;;;;5156545;27;20039;-58
2023/04/04 00:47:17;;;;;;;8.00;3.97;;;3.90;99.90;;;;;;5156198;27;20053;-58
2023/04/04 00:49:45;;;;;;;8.77;3.42;;;3.90;99.90;;;;;;5155020;27;20027;-58
2023/04/04 00:52:11;;;;;;;7.68;3.80;;;3.90;99.90;;;;;;5138257;27;20495;-57
2023/04/04 00:54:36;;;;;;;5.90;3.47;;;3.90;99.90;;;;;;5156776;27;20031;-58
2023/04/04 00:57:05;;;;;;;8.10;3.97;;;3.80;99.90;;;;;;5156676;27;20065;-58
2023/04/04 00:59:31;;;;;;;8.20;3.90;;;3.80;99.90;;;;;;5155112;27;20049;-57
2023/04/04 01:01:58;;;;;;;7.88;3.95;;;3.80;99.90;;;;;;5137709;27;20034;-58
2023/04/04 01:04:24;;;;;;;11.00;3.80;;;3.80;99.90;;;;;;5137919;27;20380;-58
2023/04/04 01:06:50;;;;;;;9.82;4.38;;;3.70;99.90;;;;;;5156401;27;20087;-58
2023/04/04 01:09:17;;;;;;;6.63;3.80;;;3.70;99.90;;;;;;5155276;27;20083;-58
2023/04/04 01:11:43;;;;;;;7.28;4.30;;;3.70;99.90;;;;;;5155612;27;20070;-57
2023/04/04 01:14:09;;;;;;;6.32;4.00;;;3.70;99.90;;;;;;5156059;27;20544;-58
2023/04/04 01:16:35;;;;;;;13.10;4.47;;;3.70;99.90;;;;;;5156351;27;20039;-58
2023/04/04 01:19:02;;;;;;;6.43;4.10;;;3.70;99.90;;;;;;5156400;27;20369;-58
2023/04/04 01:21:29;;;;;;;12.02;4.32;;;3.60;99.90;;;;;;5152167;27;20058;-58
2023/04/04 01:24:03;;;;;;;7.15;4.15;;;3.60;99.90;;;;;;5137073;27;20039;-57
2023/04/04 01:26:29;;;;;;;7.50;3.83;;;3.50;99.90;;;;;;5155912;27;20047;-57
2023/04/04 01:28:57;;;;;;;10.45;3.95;;;3.40;99.90;;;;;;5155999;27;20047;-57
2023/04/04 01:31:47;;;;;;;6.97;3.88;;;3.40;99.90;;;;;;5153951;27;20484;-58
2023/04/04 01:34:31;;;;;;;10.95;3.65;;;3.40;99.90;;;;;;5155093;27;20054;-58
2023/04/04 01:37:02;;;;;;;7.43;3.70;;;3.40;99.90;;;;;;5137424;27;20031;-58
2023/04/04 01:39:37;;;;;;;7.20;3.25;;;3.30;99.90;;;;;;5155749;27;20404;-58
2023/04/04 01:42:04;;;;;;;8.55;3.42;;;3.30;99.90;;;;;;5135150;27;20526;-57
2023/04/04 01:44:30;;;;;;;9.15;3.85;;;3.20;99.90;;;;;;5137203;27;20490;-57
2023/04/04 01:46:55;;;;;;;9.38;3.63;;;3.20;99.90;;;;;;5155636;27;20082;-57
2023/04/04 01:49:22;;;;;;;6.47;3.40;;;3.20;99.90;;;;;;5155423;27;20041;-57
2023/04/04 01:51:50;;;;;;;8.10;3.67;;;3.10;99.90;;;;;;5135447;27;20051;-57
2023/04/04 01:54:17;;;;;;;8.05;3.08;;;3.20;99.90;;;;;;5154772;27;20050;-58
2023/04/04 01:56:44;;;;;;;8.50;3.53;;;3.10;99.90;;;;;;5155141;27;20508;-57
2023/04/04 01:59:10;;;;;;;5.60;3.88;;;3.10;99.90;;;;;;5136158;27;20045;-57
2023/04/04 02:01:36;;;;;;;8.80;3.55;;;3.00;99.90;;;;;;5136844;27;20035;-57
2023/04/04 02:04:02;;;;;;;5.93;3.15;;;3.00;99.90;;;;;;5153582;27;20041;-57
2023/04/04 02:06:28;;;;;;;6.93;3.40;;;3.00;99.90;;;;;;5154649;27;20030;-57
2023/04/04 02:08:55;;;;;;;7.25;3.40;;;3.00;99.90;;;;;;5155584;27;20099;-57
2023/04/04 02:11:21;;;;;;;7.85;3.33;;;2.90;99.90;;;;;;5155042;27;20047;-57
2023/04/04 02:13:48;;;;;;;6.70;3.28;;;2.90;99.90;;;;;;5153911;27;20055;-57
2023/04/04 02:16:14;;;;;;;7.35;3.30;;;2.80;99.90;;;;;;5154224;27;20103;-57
2023/04/04 02:18:40;;;;;;;5.97;2.92;;;2.90;99.90;;;;;;5154594;27;20034;-57
2023/04/04 02:21:06;;;;;;;10.80;3.85;;;2.80;99.90;;;;;;5154859;27;20430;-58
2023/04/04 02:23:32;;;;;;;7.93;3.40;;;2.80;99.90;;;;;;5153995;27;20046;-57
2023/04/04 02:25:57;;;;;;;6.18;3.58;;;2.80;99.90;;;;;;5145827;27;20066;-58
2023/04/04 02:28:23;;;;;;;7.28;3.55;;;2.80;99.90;;;;;;5154616;27;20035;-58
2023/04/04 02:30:49;;;;;;;6.57;3.40;;;2.70;99.90;;;;;;5154852;27;20426;-57
2023/04/04 02:33:15;;;;;;;5.65;3.33;;;2.70;99.90;;;;;;5154822;27;20038;-57
2023/04/04 02:35:40;;;;;;;5.78;3.00;;;2.70;99.90;;;;;;5152598;27;20038;-57
2023/04/04 02:38:06;;;;;;;7.13;3.60;;;2.70;99.90;;;;;;5154575;27;20035;-57
2023/04/04 02:40:32;;;;;;;6.82;3.30;;;2.70;99.90;;;;;;5154810;27;20163;-57
2023/04/04 02:42:57;;;;;;;6.53;3.25;;;2.70;99.90;;;;;;5154505;27;20392;-57
2023/04/04 02:45:23;;;;;;;5.75;2.83;;;2.70;99.90;;;;;;5153197;27;20034;-58
2023/04/04 02:47:50;;;;;;;6.60;3.63;;;2.70;99.90;;;;;;5153710;27;20052;-58
2023/04/04 02:50:16;;;;;;;8.65;3.42;;;2.60;99.90;;;;;;5154394;27;20122;-58
2023/04/04 02:52:41;;;;;;;7.03;3.63;;;2.60;99.90;;;;;;5154527;27;20038;-57
2023/04/04 02:55:08;;;;;;;8.10;3.80;;;2.60;99.90;;;;;;5153428;27;20039;-57
2023/04/04 02:57:34;;;;;;;6.65;3.20;;;2.50;99.90;;;;;;5153196;27;20675;-57
2023/04/04 03:00:00;;;;;;;5.65;3.33;;;2.50;99.90;;;;;;5153547;27;20095;-56
2023/04/04 03:02:25;;;;;;;5.38;3.95;;;2.50;99.90;;;;;;5134868;27;20057;-57
2023/04/04 03:04:52;;;;;;;7.57;3.13;;;2.50;99.90;;;;;;5153784;27;20038;-57
2023/04/04 03:07:17;;;;;;;7.70;3.35;;;2.50;99.90;;;;;;5151938;27;20038;-56
2023/04/04 03:09:44;;;;;;;5.45;3.25;;;2.50;99.90;;;;;;5152645;27;20039;-56
2023/04/04 03:12:10;;;;;;;6.63;3.10;;;2.40;99.90;;;;;;5153003;27;20039;-56
2023/04/04 03:14:36;;;;;;;4.65;2.83;;;2.50;99.90;;;;;;5131388;27;20051;-56
2023/04/04 03:17:02;;;;;;;6.13;3.33;;;2.50;99.90;;;;;;5131819;27;20027;-57
2023/04/04 03:19:28;;;;;;;7.22;3.33;;;2.50;99.90;;;;;;5130814;28;20107;-57
2023/04/04 03:21:53;;;;;;;6.97;3.53;;;2.40;99.90;;;;;;5132985;27;20043;-56
2023/04/04 03:24:19;;;;;;;6.15;3.20;;;2.30;99.90;;;;;;5132923;28;20126;-56
2023/04/04 03:26:45;;;;;;;6.60;3.30;;;2.30;99.90;;;;;;5132978;28;20038;-57
2023/04/04 03:29:10;;;;;;;7.65;4.15;;;2.30;99.90;;;;;;5130904;28;20443;-57
2023/04/04 03:31:36;;;;;;;8.18;4.93;;;2.30;99.90;;;;;;5132974;28;20068;-57
2023/04/04 03:34:03;;;;;;;6.20;3.30;;;2.20;99.90;;;;;;5130964;28;20382;-57
2023/04/04 03:36:29;;;;;;;7.40;3.60;;;2.20;99.90;;;;;;5131760;28;20507;-57
2023/04/04 03:38:55;;;;;;;6.47;3.10;;;2.20;99.90;;;;;;5131124;27;20043;-56
2023/04/04 03:41:21;;;;;;;8.63;3.80;;;2.20;99.90;;;;;;5132755;27;20031;-57
2023/04/04 03:43:47;;;;;;;5.40;2.85;;;2.20;99.90;;;;;;5132850;28;20039;-58
2023/04/04 03:46:13;;;;;;;6.93;3.80;;;2.10;99.90;;;;;;5132829;27;20503;-57
2023/04/04 03:48:39;;;;;;;9.73;3.38;;;2.20;99.90;;;;;;5131739;28;20142;-56
2023/04/04 03:51:05;;;;;;;6.63;3.38;;;2.10;99.90;;;;;;5130930;28;20043;-57
2023/04/04 03:53:31;;;;;;;8.20;3.10;;;2.20;99.90;;;;;;5113525;28;20062;-56
2023/04/04 03:55:57;;;;;;;5.47;3.72;;;2.20;99.90;;;;;;5131423;28;20035;-57
2023/04/04 03:58:23;;;;;;;8.45;3.85;;;2.20;99.90;;;;;;5132804;27;20035;-56
2023/04/04 04:00:49;;;;;;;6.88;3.13;;;2.20;99.90;;;;;;5130813;27;20031;-56
2023/04/04 04:03:14;;;;;;;6.10;3.70;;;2.20;99.90;;;;;;5130652;28;20461;-56
2023/04/04 04:05:41;;;;;;;8.43;3.55;;;2.20;99.90;;;;;;5132508;27;20039;-56
2023/04/04 04:08:06;;;;;;;5.88;3.25;;;2.20;99.90;;;;;;5132760;27;20043;-56
2023/04/04 04:10:33;;;;;;;4.95;3.00;;;2.10;99.90;;;;;;5131582;28;20051;-56
2023/04/04 04:12:58;;;;;;;6.93;3.33;;;2.10;99.90;;;;;;5132030;27;20051;-57
2023/04/04 04:15:24;;;;;;;6.45;3.13;;;2.10;99.90;;;;;;5148807;27;20042;-57
2023/04/04 04:17:50;;;;;;;7.53;3.55;;;2.10;99.90;;;;;;5152177;27;20392;-57
2023/04/04 04:20:16;;;;;;;6.90;3.40;;;2.10;99.90;;;;;;5152474;27;20042;-57
2023/04/04 04:22:48;;;;;;;7.88;3.70;;;2.10;99.90;;;;;;5156890;27;20493;-57
2023/04/04 04:25:15;;;;;;;7.07;3.42;;;2.10;99.90;;;;;;5156902;27;20121;-56
2023/04/04 04:27:41;;;;;;;7.63;3.38;;;2.10;99.90;;;;;;5156887;27;20418;-57
2023/04/04 04:30:07;;;;;;;7.97;3.60;;;2.10;99.90;;;;;;5154702;27;20050;-56
2023/04/04 04:32:33;;;;;;;5.00;2.97;;;2.00;99.90;;;;;;5156696;27;20043;-56
2023/04/04 04:34:59;;;;;;;4.70;3.30;;;2.00;99.90;;;;;;5156433;27;20039;-56
2023/04/04 04:37:25;;;;;;;6.63;3.78;;;1.90;99.90;;;;;;5154771;27;20043;-57
2023/04/04 04:39:51;;;;;;;6.63;3.33;;;1.90;99.90;;;;;;5155266;27;20035;-57
2023/04/04 04:42:18;;;;;;;5.72;3.53;;;1.90;99.90;;;;;;5145705;27;20046;-57
2023/04/04 04:44:44;;;;;;;7.15;3.45;;;1.90;99.90;;;;;;5117302;27;20543;-57
2023/04/04 04:47:10;;;;;;;8.02;3.58;;;1.90;99.90;;;;;;5135717;27;20152;-57
2023/04/04 04:49:35;;;;;;;5.88;3.20;;;1.90;99.90;;;;;;5116877;27;20095;-56
2023/04/04 04:52:01;;;;;;;5.93;3.60;;;2.00;99.90;;;;;;5151382;27;20049;-56
2023/04/04 04:54:27;;;;;;;5.25;3.05;;;2.00;99.90;;;;;;5156392;27;20876;-56
2023/04/04 04:56:55;;;;;;;5.32;3.30;;;1.90;99.90;;;;;;5154995;27;20122;-57
2023/04/04 04:59:21;;;;;;;8.38;3.28;;;1.90;99.90;;;;;;5156567;27;20108;-56
2023/04/04 05:01:47;;;;;;;6.57;2.95;;;2.00;99.90;;;;;;5155095;27;20816;-57
2023/04/04 05:04:13;;;;;;;4.22;2.95;;;1.90;99.90;;;;;;5155345;27;20492;-56
2023/04/04 05:06:39;;;;;;;8.23;3.00;;;1.90;99.90;;;;;;5137281;27;20118;-57
2023/04/04 05:09:05;;;;;;;6.38;3.17;;;1.90;99.90;;;;;;5155965;27;20175;-56
2023/04/04 05:11:30;;;;;;;8.05;3.33;;;1.90;99.90;;;;;;5154474;27;20119;-57
2023/04/04 05:13:57;;;;;;;7.65;3.80;;;1.90;99.90;;;;;;5128030;27;20057;-56
2023/04/04 05:16:23;;;;;;;6.13;3.20;;;1.80;99.90;;;;;;5137362;27;20057;-56
2023/04/04 05:18:48;;;;;;;6.47;3.55;;;1.90;99.90;;;;;;5136582;27;20488;-57
2023/04/04 05:21:14;;;;;;;10.85;4.15;;;1.90;99.90;;;;;;5155688;27;20110;-56
2023/04/04 05:23:40;;;;;;;6.13;3.60;;;1.90;99.90;;;;;;5154156;27;20060;-56
2023/04/04 05:26:06;;;;;;;5.88;3.63;;;2.00;99.90;;;;;;5136510;27;20122;-57
2023/04/04 05:28:31;;;;;;;7.60;4.03;;;2.00;99.90;;;;;;5155604;27;20545;-57
2023/04/04 05:30:57;;;;;;;7.30;3.83;;;2.00;99.90;;;;;;5155433;27;20110;-57
2023/04/04 05:33:23;;;;;;;5.35;3.55;;;2.10;99.90;;;;;;5154010;27;20045;-57
2023/04/04 05:35:48;;;;;;;13.38;4.03;;;2.20;99.90;;;;;;5154954;27;20053;-56
2023/04/04 05:38:14;;;;;;;9.20;3.40;;;2.20;99.90;;;;;;5136930;27;20118;-57
2023/04/04 05:40:40;;;;;;;8.38;3.40;;;2.30;99.90;;;;;;5155691;27;20042;-57
2023/04/04 05:43:06;;;;;;;6.53;3.53;;;2.40;99.90;;;;;;5155542;27;20555;-58
2023/04/04 05:45:31;;;;;;;15.13;3.85;;;2.50;99.90;;;;;;5153390;27;20061;-57
2023/04/04 05:47:57;;;;;;;5.90;3.78;;;2.50;99.90;;;;;;5155003;27;20066;-57
2023/04/04 05:50:23;;;;;;;8.50;3.63;;;2.50;99.90;;;;;;5136502;27;20042;-58
2023/04/04 05:52:48;;;;;;;15.48;4.88;;;2.50;99.90;;;;;;5155035;27;20038;-57
2023/04/04 05:55:14;;;;;;;13.13;4.55;;;2.60;99.90;;;;;;5135003;27;20083;-57
2023/04/04 05:57:47;;;;;;;9.55;4.88;;;2.60;99.90;;;;;;5152295;27;20034;-58
2023/04/04 06:00:14;;;;;;;13.13;4.53;;;2.60;99.90;;;;;;5128816;27;20030;-57
2023/04/04 06:02:40;;;;;;;15.85;4.65;;;2.60;99.90;;;;;;5152624;27;20087;-58
2023/04/04 06:05:07;;;;;;;11.80;4.30;;;2.70;99.90;;;;;;5136358;27;20049;-57
2023/04/04 06:07:32;;;;;;;10.73;4.75;;;2.80;99.90;;;;;;5154708;27;20394;-57
2023/04/04 06:09:58;;;;;;;12.23;4.05;;;3.00;99.90;;;;;;5154629;27;20034;-57
2023/04/04 06:12:24;;;;;;;8.50;4.15;;;3.00;99.90;;;;;;5152919;27;20035;-57
2023/04/04 06:14:50;;;;;;;11.18;3.83;;;3.20;99.90;;;;;;5153531;27;20047;-57
2023/04/04 06:17:15;;;;;;;8.13;3.78;;;3.50;99.90;;;;;;5154733;27;20035;-57
2023/04/04 06:19:41;;;;;;;12.35;4.35;;;3.80;99.90;;;;;;5135843;27;20476;-57
2023/04/04 06:22:07;;;;;;;14.70;3.80;;;4.00;99.90;;;;;;5146780;27;20047;-57
2023/04/04 06:24:32;;;;;;;8.35;3.30;;;4.30;99.90;;;;;;5151535;27;20472;-58
2023/04/04 06:26:58;;;;;;;9.63;3.28;;;4.60;99.90;;;;;;5144851;27;20413;-58
2023/04/04 06:29:25;;;;;;;6.07;3.40;;;4.80;99.90;;;;;;5130642;27;20055;-59
2023/04/04 06:31:50;;;;;;;13.40;3.47;;;5.00;99.90;;;;;;5145646;27;20035;-59
2023/04/04 06:34:16;;;;;;;9.88;3.40;;;5.10;99.90;;;;;;5146034;27;20476;-58
2023/04/04 06:36:42;;;;;;;8.10;2.95;;;5.30;99.90;;;;;;5145737;27;20035;-58
2023/04/04 06:39:07;;;;;;;6.90;3.17;;;5.50;99.90;;;;;;5143150;27;20038;-58
2023/04/04 06:41:33;;;;;;;7.95;3.10;;;5.70;99.90;;;;;;5144767;27;20052;-58
2023/04/04 06:43:59;;;;;;;5.65;2.40;;;5.80;99.90;;;;;;5146769;27;20027;-59
2023/04/04 06:46:26;;;;;;;6.82;2.72;;;6.00;99.90;;;;;;5149195;27;20125;-59
2023/04/04 06:48:51;;;;;;;6.35;2.22;;;6.20;99.90;;;;;;5153277;27;20042;-59
2023/04/04 06:51:17;;;;;;;9.68;2.72;;;6.40;99.90;;;;;;5154245;27;20049;-59
2023/04/04 06:53:43;;;;;;;7.07;2.72;;;6.60;99.90;;;;;;5153035;27;20042;-58
2023/04/04 06:56:09;;;;;;;8.95;3.05;;;6.90;99.90;;;;;;5148628;27;20064;-59
2023/04/04 06:58:34;;;;;;;6.78;2.58;;;6.90;99.90;;;;;;5153331;27;20039;-58
2023/04/04 07:01:03;;;;;;;5.28;2.60;;;7.30;99.90;;;;;;5153897;27;20106;-58
2023/04/04 07:03:29;;;;;;;6.55;2.00;;;7.40;99.90;;;;;;5153961;27;20084;-58
2023/04/04 07:05:55;;;;;;;10.57;2.47;;;7.70;99.90;;;;;;5153938;27;20111;-58
2023/04/04 07:08:21;;;;;;;4.38;1.75;;;8.00;99.90;;;;;;5153799;27;20480;-58
2023/04/04 07:10:46;;;;;;;4.78;1.90;;;8.10;99.90;;;;;;5154136;27;20064;-58
2023/04/04 07:13:12;;;;;;;4.97;2.22;;;8.50;99.90;;;;;;5144062;27;20461;-59
2023/04/04 07:15:38;;;;;;;13.63;2.95;;;8.50;99.90;;;;;;5132956;27;20385;-58
2023/04/04 07:18:03;;;;;;;4.00;1.90;;;8.60;99.90;;;;;;5133070;28;20039;-59
2023/04/04 07:20:29;;;;;;;7.38;2.10;;;8.80;99.90;;;;;;5133057;28;20035;-59
2023/04/04 07:22:54;;;;;;;6.38;2.50;;;8.90;99.90;;;;;;5133442;28;20031;-59
2023/04/04 07:25:20;;;;;;;5.47;2.20;;;9.20;99.90;;;;;;5133395;28;20046;-58
2023/04/04 07:27:46;;;;;;;6.32;2.30;;;9.40;99.90;;;;;;5133041;27;20062;-59
2023/04/04 07:30:12;;;;;;;6.88;1.90;;;9.60;99.90;;;;;;5133659;28;20135;-59
2023/04/04 07:32:38;;;;;;;9.77;2.58;;;10.10;99.90;;;;;;5133207;28;20042;-59
2023/04/04 07:35:05;;;;;;;5.82;1.90;;;10.10;97.70;;;;;;5113386;28;20047;-58
2023/04/04 07:37:32;;;;;;;5.65;1.80;;;10.20;98.00;;;;;;5132799;27;20035;-59
2023/04/04 07:39:58;;;;;;;8.60;2.40;;;10.50;98.50;;;;;;5132980;28;20042;-59
2023/04/04 07:42:24;;;;;;;5.63;1.90;;;10.50;98.00;;;;;;5132910;27;20031;-58
2023/04/04 07:44:50;;;;;;;8.70;2.15;;;10.80;99.00;;;;;;5133203;28;20039;-59
2023/04/04 07:47:16;;;;;;;5.43;2.40;;;11.10;97.80;;;;;;5133343;28;20370;-58
2023/04/04 07:49:42;;;;;;;4.95;1.95;;;11.30;98.00;;;;;;5132732;27;20048;-60
2023/04/04 07:52:08;;;;;;;4.75;2.17;;;11.20;97.50;;;;;;5132829;28;20126;-61
2023/04/04 07:54:35;;;;;;;4.38;2.05;;;11.50;95.70;;;;;;5132508;27;20446;-60
2023/04/04 07:57:04;;;;;;;7.85;2.10;;;11.50;95.40;;;;;;5099941;27;20123;-60
2023/04/04 07:59:30;;;;;;;7.57;2.80;;;11.50;96.20;;;;;;5136876;27;20031;-60
2023/04/04 08:01:56;;;;;;;7.32;2.67;;;11.40;96.50;;;;;;5136848;27;20037;-60
2023/04/04 08:04:22;;;;;;;6.85;1.90;;;11.70;96.20;;;;;;5136426;27;20121;-60
2023/04/04 08:06:47;;;;;;;5.90;2.45;;;11.70;95.60;;;;;;5136730;27;20072;-60
2023/04/04 08:09:13;;;;;;;4.35;1.92;;;11.90;94.80;;;;;;5136731;27;20042;-60
2023/04/04 08:11:39;;;;;;;5.90;2.00;;;12.00;95.70;;;;;;5136208;27;20043;-60
2023/04/04 08:14:04;;;;;;;9.25;2.20;;;12.20;94.00;;;;;;5136359;27;20051;-59
2023/04/04 08:16:30;;;;;;;5.53;1.80;;;12.40;95.40;;;;;;5136490;27;20480;-60
2023/04/04 08:18:56;;;;;;;8.68;2.20;;;12.40;94.20;;;;;;5117064;27;20499;-60
2023/04/04 08:21:22;;;;;;;3.67;2.05;;;12.60;95.40;;;;;;5117708;27;20035;-60
2023/04/04 08:23:47;;;;;;;8.40;2.50;;;12.50;94.00;;;;;;5136329;27;20078;-60
2023/04/04 08:26:13;;;;;;;5.13;2.13;;;12.90;95.50;;;;;;5136039;27;20054;-60
2023/04/04 08:28:39;;;;;;;6.40;1.83;;;13.20;95.30;;;;;;5136298;27;20047;-58
2023/04/04 08:31:05;;;;;;;3.58;1.70;;;13.40;94.80;;;;;;5118241;27;20042;-58
2023/04/04 08:33:30;;;;;;;5.32;1.90;;;13.40;93.30;;;;;;5136238;27;20043;-57
2023/04/04 08:35:57;;;;;;;4.10;1.80;;;13.70;93.90;;;;;;5136322;27;20035;-58
2023/04/04 08:38:22;;;;;;;4.50;2.17;;;13.70;92.70;;;;;;5135985;27;20169;-58
2023/04/04 08:40:48;;;;;;;7.78;2.15;;;13.50;93.00;;;;;;5136068;27;20463;-58
2023/04/04 08:43:15;;;;;;;7.72;2.35;;;13.60;93.40;;;;;;5117557;27;20475;-57
2023/04/04 08:45:43;;;;;;;4.63;1.95;;;13.60;92.80;;;;;;5135819;27;20039;-57
2023/04/04 08:48:11;;;;;;;4.22;1.63;;;13.70;92.80;;;;;;5135933;27;20034;-58
2023/04/04 08:50:39;;;;;;;5.10;1.75;;;14.10;93.10;;;;;;5135775;27;20494;-58
2023/04/04 08:53:08;;;;;;;4.57;1.40;;;14.00;92.90;;;;;;5135844;27;20470;-58
2023/04/04 08:55:33;;;;;;;3.42;1.60;;;14.00;92.50;;;;;;5135960;27;20118;-59
2023/04/04 08:57:59;;;;;;;5.03;1.33;;;14.00;91.40;;;;;;5135616;27;20110;-58
2023/04/04 09:00:25;;;;;;;5.80;1.90;;;14.20;91.10;;;;;;5135344;27;20114;-58
2023/04/04 09:03:19;;;;;;;6.10;1.70;;;14.30;90.40;;;;;;5135420;27;20119;-58
2023/04/04 09:05:45;;;;;;;7.50;1.65;;;14.60;91.40;;;;;;5135538;27;20054;-58
2023/04/04 09:08:12;;;;;;;5.32;1.85;;;14.80;90.00;;;;;;5117131;27;20035;-58
2023/04/04 09:10:42;;;;;;;5.38;1.77;;;15.00;90.80;;;;;;5135469;27;20027;-58
2023/04/04 09:13:09;;;;;;;4.13;1.70;;;14.90;90.00;;;;;;5135434;27;20039;-58
2023/04/04 09:15:37;;;;;;;8.38;1.63;;;15.00;90.40;;;;;;5116696;27;20088;-59
2023/04/04 09:18:03;;;;;;;2.20;1.30;;;15.10;90.80;;;;;;5135276;27;20118;-59
2023/04/04 09:20:43;;;;;;;4.93;1.52;;;14.90;89.50;;;;;;5135048;27;20088;-58
2023/04/04 09:23:13;;;;;;;4.28;1.70;;;15.00;90.60;;;;;;5135354;27;20031;-59
2023/04/04 09:25:47;;;;;;;7.13;2.67;;;15.00;88.50;;;;;;5134962;27;20401;-58
2023/04/04 09:28:14;;;;;;;3.60;1.58;;;14.70;87.90;;;;;;5135118;27;20050;-59
2023/04/04 09:30:40;;;;;;;7.90;1.85;;;14.80;88.70;;;;;;5134659;27;20481;-59
2023/04/04 09:33:08;;;;;;;3.97;1.98;;;15.00;90.30;;;;;;5134794;27;20533;-59
2023/04/04 09:35:40;;;;;;;3.83;1.63;;;14.70;88.60;;;;;;5135142;27;20039;-58
2023/04/04 09:38:06;;;;;;;4.85;1.58;;;14.90;90.00;;;;;;5116602;27;20092;-58
2023/04/04 09:40:34;;;;;;;3.97;1.50;;;15.00;90.00;;;;;;5134731;27;20038;-59
2023/04/04 09:43:01;;;;;;;5.05;2.15;;;14.80;89.80;;;;;;5134549;27;20039;-60
2023/04/04 09:45:30;;;;;;;4.70;1.75;;;14.50;87.80;;;;;;5134361;27;20088;-62
2023/04/04 09:47:55;;;;;;;4.07;1.60;;;14.20;88.10;;;;;;5134611;27;20043;-58
2023/04/04 09:50:23;;;;;;;6.55;1.70;;;14.60;89.40;;;;;;5134833;27;20096;-58
2023/04/04 09:52:50;;;;;;;4.18;1.92;;;14.50;90.30;;;;;;5134191;27;20114;-58
2023/04/04 09:55:17;;;;;;;4.30;1.65;;;14.40;90.00;;;;;;5134198;27;20042;-59
2023/04/04 09:57:45;;;;;;;4.13;1.88;;;14.00;88.80;;;;;;5133970;27;20039;-59
2023/04/04 10:00:11;;;;;;;5.57;2.10;;;14.00;88.90;;;;;;5134445;27;20035;-60
2023/04/04 10:02:45;;;;;;;6.38;2.00;;;14.00;89.00;;;;;;5134337;27;20277;-58
2023/04/04 10:05:11;;;;;;;6.45;2.13;;;13.70;88.20;;;;;;5099799;27;20106;-59
2023/04/04 10:07:38;;;;;;;3.65;1.90;;;13.70;90.00;;;;;;5134061;27;20513;-58
2023/04/04 10:10:05;;;;;;;4.10;1.98;;;13.60;90.00;;;;;;5115785;27;20113;-59
2023/04/04 10:12:31;;;;;;;4.32;2.03;;;13.30;89.60;;;;;;5115135;27;20096;-59
2023/04/04 10:15:01;;;;;;;3.95;1.83;;;13.50;90.80;;;;;;5133303;27;20134;-59
2023/04/04 10:17:36;;;;;;;4.25;1.95;;;13.70;91.30;;;;;;5133820;27;20469;-59
2023/04/04 10:20:07;;;;;;;4.32;2.13;;;13.90;91.00;;;;;;5139972;27;20043;-59
2023/04/04 10:22:35;;;;;;;4.30;2.10;;;13.90;91.50;;;;;;5136536;27;20472;-59
2023/04/04 10:25:02;;;;;;;4.40;2.03;;;13.80;90.50;;;;;;5152637;27;20041;-59
2023/04/04 10:27:28;;;;;;;3.50;2.00;;;13.80;90.50;;;;;;5154025;27;20497;-59
2023/04/04 10:29:55;;;;;;;5.40;2.50;;;14.00;89.50;;;;;;5154479;27;20045;-59
2023/04/04 10:33:01;;;;;;;3.50;2.15;;;14.10;90.10;;;;;;5154525;27;20328;-59
2023/04/04 10:35:30;;;;;;;4.85;2.08;;;14.10;89.60;;;;;;5135648;27;20083;-59
2023/04/04 10:38:01;;;;;;;7.90;3.22;;;14.20;90.70;;;;;;5135942;27;20047;-59
2023/04/04 10:40:34;;;;;;;4.30;1.85;;;14.30;89.20;;;;;;5154504;27;20034;-59
2023/04/04 10:43:02;;;;;;;4.47;1.80;;;14.20;89.40;;;;;;5154273;27;20528;-59
2023/04/04 10:45:30;;;;;;;4.55;1.63;;;13.90;89.70;;;;;;5154213;27;20488;-59
2023/04/04 10:47:57;;;;;;;3.63;1.80;;;14.10;90.60;;;;;;5154304;27;20081;-59
2023/04/04 10:50:23;;;;;;;5.72;2.10;;;14.00;90.40;;;;;;5128645;27;20477;-59
2023/04/04 10:52:50;;;;;;;5.05;2.03;;;13.50;90.70;;;;;;5150148;27;20094;-59
2023/04/04 10:55:16;;;;;;;5.93;2.10;;;13.50;90.30;;;;;;5154041;27;20091;-59
2023/04/04 10:57:46;;;;;;;4.10;1.92;;;13.20;90.30;;;;;;5153930;27;20497;-59
2023/04/04 11:00:16;;;;;;;6.47;2.60;;;13.30;91.90;;;;;;5153763;27;20160;-59
2023/04/04 11:02:56;;;;;;;6.22;2.60;;;13.30;90.70;;;;;;5117536;27;20508;-58
2023/04/04 11:05:33;;;;;;;4.47;2.53;;;13.40;89.70;;;;;;5147636;27;20493;-59
2023/04/04 11:08:05;;;;;;;5.07;2.33;;;13.30;91.60;;;;;;5154017;27;20085;-59
2023/04/04 11:10:34;;;;;;;6.63;2.42;;;13.40;90.40;;;;;;5153315;27;20135;-59
2023/04/04 11:13:08;;;;;;;7.05;2.38;;;13.60;92.10;;;;;;5154114;27;20419;-59
2023/04/04 11:15:57;;;;;;;5.85;2.20;;;13.60;90.90;;;;;;5134595;27;20519;-59
2023/04/04 11:18:37;;;;;;;5.63;2.22;;;13.50;89.10;;;;;;5150262;27;20058;-58
2023/04/04 11:21:06;;;;;;;3.60;2.20;;;13.60;91.70;;;;;;5153630;27;20031;-59
2023/04/04 11:23:59;;;;;;;;;;;13.70;91.30;;;;;;5135156;27;20129;-59
2023/04/04 11:26:25;;;;;;;3.30;1.90;;;13.40;90.80;;;;;;5131467;27;19919;-59
2023/04/04 11:28:51;;;;;;;6.63;2.15;;;13.60;91.70;;;;;;5151299;27;20050;-59
2023/04/04 11:31:17;;;;;;;6.57;3.03;;;13.70;91.00;;;;;;5157337;27;20043;-59
2023/04/04 11:33:55;;;;;;;5.70;2.40;;;13.70;91.50;;;;;;5158044;27;20380;-59
2023/04/04 11:36:40;;;;;;;4.95;2.20;;;13.60;88.90;;;;;;5158162;27;20396;-59
2023/04/04 11:39:27;;;;;;;8.57;3.05;;;13.70;90.00;;;;;;5157620;27;20043;-60
2023/04/04 11:42:07;;;;;;;6.68;2.58;;;14.00;90.20;;;;;;5157657;27;20031;-59
2023/04/04 11:44:38;;;;;;;;;;;14.00;91.40;;;;;;5101830;27;20058;-59
2023/04/04 11:47:08;;;;;;;5.88;2.22;;;13.90;90.70;;;;;;5138061;27;19915;-59
2023/04/04 11:49:39;;;;;;;4.07;2.20;;;14.30;91.50;;;;;;5139245;27;20046;-59
2023/04/04 11:52:10;;;;;;;4.97;1.92;;;14.40;90.80;;;;;;5157822;27;20099;-59
2023/04/04 11:54:40;;;;;;;7.53;2.42;;;14.50;89.70;;;;;;5157552;27;20112;-59
2023/04/04 11:57:10;;;;;;;4.05;2.40;;;14.00;89.80;;;;;;5157371;27;20519;-60
2023/04/04 11:59:40;;;;;;;5.90;2.08;;;14.10;90.10;;;;;;5154646;27;20138;-59
2023/04/04 12:02:06;;;;;;;5.25;2.80;;;13.80;89.20;;;;;;5141884;27;20039;-61
2023/04/04 12:04:33;;;;;;;4.20;2.20;;;14.10;91.30;;;;;;5137629;27;20043;-60
2023/04/04 12:07:00;;;;;;;6.85;2.00;;;14.10;91.20;;;;;;5157777;27;20438;-59
2023/04/04 12:09:27;;;;;;;3.78;2.00;;;14.10;87.00;;;;;;5138781;27;20054;-59
2023/04/04 12:11:54;;;;;;;6.38;2.70;;;14.00;89.20;;;;;;5157170;27;20376;-59
2023/04/04 12:14:23;;;;;;;5.53;2.08;;;14.10;90.00;;;;;;5156877;27;20644;-60
2023/04/04 12:16:53;;;;;;;9.65;2.25;;;13.90;85.60;;;;;;5157380;27;20042;-59
2023/04/04 12:19:19;;;;;;;5.68;2.58;;;13.90;86.00;;;;;;5156968;27;20043;-60
2023/04/04 12:21:45;;;;;;;6.13;2.78;;;13.70;86.50;;;;;;5157629;27;20047;-60
2023/04/04 12:24:11;;;;;;;3.90;2.40;;;13.70;87.70;;;;;;5151890;27;20039;-59
2023/04/04 12:26:39;;;;;;;5.25;2.00;;;13.70;88.80;;;;;;5157414;27;20042;-59
2023/04/04 12:29:06;;;;;;;7.78;2.42;;;13.90;89.40;;;;;;5156452;27;20106;-59
2023/04/04 12:31:33;;;;;;;6.78;2.10;;;13.70;87.00;;;;;;5138633;27;20039;-59
2023/04/04 12:33:59;;;;;;;5.40;2.47;;;13.60;88.90;;;;;;5138410;27;20049;-59
2023/04/04 12:36:25;;;;;;;7.03;2.55;;;13.80;87.60;;;;;;5137343;27;20508;-59
2023/04/04 12:39:03;;;;;;;6.22;1.98;;;14.00;89.90;;;;;;5156321;27;20031;-59
2023/04/04 12:41:29;;;;;;;6.20;2.30;;;14.10;90.50;;;;;;5155262;27;20034;-59
2023/04/04 12:44:06;;;;;;;4.90;1.90;;;14.30;89.30;;;;;;5156559;27;20045;-59
2023/04/04 12:46:39;;;;;;;4.18;1.90;;;14.10;87.40;;;;;;5156530;27;20038;-59
2023/04/04 12:49:07;;;;;;;6.07;2.05;;;13.90;85.20;;;;;;5153977;27;20380;-59
2023/04/04 12:51:35;;;;;;;5.88;2.45;;;14.10;87.80;;;;;;5135515;27;20035;-59
2023/04/04 12:54:03;;;;;;;7.00;2.10;;;14.00;86.50;;;;;;5116637;27;20136;-60